Svetlogorsk, Russia
Current Conditions -  °F | °C
As of 6:30 AM on Monday 26 Jan 2015 (Local Time) from UMKK Reporting Station
Light Rain Light Rain  
Wind Chill: 30°   Ceiling: 1900
Heat Index: 34°   Visibility: 4mi
Dew Point: 30°   Wind: 4mph
Humidity: 87%   Direction: 290°WNW
Pressure: 30.18"   Gusts: NA
Location:  54.94°N, 20.15°E
Report Text: UMKK 260430Z 29002MPS 260V320 7000 -RA BKN019 OVC066 01/M01 Q1022 R24/29//55 NOSIG RMK QFE766/1021
Loading
Personal Weather Stations






























Interactive Weather Map New forecast layout! Learn more

10-Day Weather Forecast

Advertisements
Track Severe Weather on mobile